sensor_id;sensor_type;location;lat;lon;timestamp;temperature;humidity
33715;DHT22;20043;50.998;4.754;2024-01-06T00:00:55;9.30;99.90
33715;DHT22;20043;50.998;4.754;2024-01-06T00:03:20;9.30;99.90
33715;DHT22;20043;50.998;4.754;2024-01-06T00:05:46;9.10;99.90
33715;DHT22;20043;50.998;4.754;2024-01-06T00:08:11;9.20;99.90
33715;DHT22;20043;50.998;4.754;2024-01-06T00:10:37;9.20;99.90
33715;DHT22;20043;50.998;4.754;2024-01-06T00:13:03;9.10;99.90
33715;DHT22;20043;50.998;4.754;2024-01-06T00:15:28;9.10;99.90
33715;DHT22;20043;50.998;4.754;2024-01-06T00:17:54;9.00;99.90
33715;DHT22;20043;50.998;4.754;2024-01-06T00:20:19;9.00;99.90
33715;DHT22;20043;50.998;4.754;2024-01-06T00:22:45;9.00;99.90
33715;DHT22;20043;50.998;4.754;2024-01-06T00:25:11;9.10;99.90
33715;DHT22;20043;50.998;4.754;2024-01-06T00:27:36;9.00;99.90
33715;DHT22;20043;50.998;4.754;2024-01-06T00:30:02;9.00;99.90
33715;DHT22;20043;50.998;4.754;2024-01-06T00:32:28;8.80;99.90
33715;DHT22;20043;50.998;4.754;2024-01-06T00:34:54;8.80;99.90
33715;DHT22;20043;50.998;4.754;2024-01-06T00:37:20;8.90;99.90
33715;DHT22;20043;50.998;4.754;2024-01-06T00:39:46;8.90;99.90
33715;DHT22;20043;50.998;4.754;2024-01-06T00:42:11;8.90;99.90
33715;DHT22;20043;50.998;4.754;2024-01-06T00:44:37;8.80;99.90
33715;DHT22;20043;50.998;4.754;2024-01-06T00:47:03;8.70;99.90
33715;DHT22;20043;50.998;4.754;2024-01-06T00:49:29;8.80;99.90
33715;DHT22;20043;50.998;4.754;2024-01-06T00:51:55;8.70;99.90
33715;DHT22;20043;50.998;4.754;2024-01-06T00:54:20;8.70;99.90
33715;DHT22;20043;50.998;4.754;2024-01-06T00:56:46;8.80;99.90
33715;DHT22;20043;50.998;4.754;2024-01-06T00:59:11;8.70;99.90
33715;DHT22;20043;50.998;4.754;2024-01-06T01:01:37;8.70;99.90
33715;DHT22;20043;50.998;4.754;2024-01-06T01:04:03;8.90;99.90
33715;DHT22;20043;50.998;4.754;2024-01-06T01:06:28;8.90;99.90
33715;DHT22;20043;50.998;4.754;2024-01-06T01:08:54;9.00;99.90
33715;DHT22;20043;50.998;4.754;2024-01-06T01:11:20;9.00;99.90
33715;DHT22;20043;50.998;4.754;2024-01-06T01:13:46;9.00;99.90
33715;DHT22;20043;50.998;4.754;2024-01-06T01:16:11;9.00;99.90
33715;DHT22;20043;50.998;4.754;2024-01-06T01:18:37;9.00;99.90
33715;DHT22;20043;50.998;4.754;2024-01-06T01:21:03;9.10;99.90
33715;DHT22;20043;50.998;4.754;2024-01-06T01:23:28;9.00;99.90
33715;DHT22;20043;50.998;4.754;2024-01-06T01:25:54;9.00;99.90
33715;DHT22;20043;50.998;4.754;2024-01-06T01:28:20;9.00;99.90
33715;DHT22;20043;50.998;4.754;2024-01-06T01:30:45;9.00;99.90
33715;DHT22;20043;50.998;4.754;2024-01-06T01:33:11;9.00;99.90
33715;DHT22;20043;50.998;4.754;2024-01-06T01:35:37;9.00;99.90
33715;DHT22;20043;50.998;4.754;2024-01-06T01:38:02;9.00;99.90
33715;DHT22;20043;50.998;4.754;2024-01-06T01:40:28;9.00;99.90
33715;DHT22;20043;50.998;4.754;2024-01-06T01:42:54;9.10;99.90
33715;DHT22;20043;50.998;4.754;2024-01-06T01:45:19;9.10;99.90
33715;DHT22;20043;50.998;4.754;2024-01-06T01:47:45;9.00;99.90
33715;DHT22;20043;50.998;4.754;2024-01-06T01:50:12;8.90;99.90
33715;DHT22;20043;50.998;4.754;2024-01-06T01:52:41;8.60;99.90
33715;DHT22;20043;50.998;4.754;2024-01-06T01:55:07;8.70;99.90
33715;DHT22;20043;50.998;4.754;2024-01-06T01:57:33;8.80;99.90
33715;DHT22;20043;50.998;4.754;2024-01-06T02:00:00;8.80;99.90
33715;DHT22;20043;50.998;4.754;2024-01-06T02:02:26;8.80;99.90
33715;DHT22;20043;50.998;4.754;2024-01-06T02:04:54;8.90;99.90
33715;DHT22;20043;50.998;4.754;2024-01-06T02:07:20;8.90;99.90
33715;DHT22;20043;50.998;4.754;2024-01-06T02:09:46;9.00;99.90
33715;DHT22;20043;50.998;4.754;2024-01-06T02:12:11;9.00;99.90
33715;DHT22;20043;50.998;4.754;2024-01-06T02:14:37;8.70;99.90
33715;DHT22;20043;50.998;4.754;2024-01-06T02:17:02;8.60;99.90
33715;DHT22;20043;50.998;4.754;2024-01-06T02:19:28;8.90;99.90
33715;DHT22;20043;50.998;4.754;2024-01-06T02:21:54;8.90;99.90
33715;DHT22;20043;50.998;4.754;2024-01-06T02:24:20;9.00;99.90
33715;DHT22;20043;50.998;4.754;2024-01-06T02:26:46;9.10;99.90
33715;DHT22;20043;50.998;4.754;2024-01-06T02:29:11;9.20;99.90
33715;DHT22;20043;50.998;4.754;2024-01-06T02:31:37;9.30;99.90
33715;DHT22;20043;50.998;4.754;2024-01-06T02:34:02;9.30;99.90
33715;DHT22;20043;50.998;4.754;2024-01-06T02:36:28;9.30;99.90
33715;DHT22;20043;50.998;4.754;2024-01-06T02:38:54;9.20;99.90
33715;DHT22;20043;50.998;4.754;2024-01-06T02:41:19;9.10;99.90
33715;DHT22;20043;50.998;4.754;2024-01-06T02:43:45;9.10;99.90
33715;DHT22;20043;50.998;4.754;2024-01-06T02:46:10;9.00;99.90
33715;DHT22;20043;50.998;4.754;2024-01-06T02:48:36;9.10;99.90
33715;DHT22;20043;50.998;4.754;2024-01-06T02:51:02;9.20;99.90
33715;DHT22;20043;50.998;4.754;2024-01-06T02:53:27;9.20;99.90
33715;DHT22;20043;50.998;4.754;2024-01-06T02:55:53;9.30;99.90
33715;DHT22;20043;50.998;4.754;2024-01-06T02:58:19;9.10;99.90
33715;DHT22;20043;50.998;4.754;2024-01-06T03:00:44;9.10;99.90
33715;DHT22;20043;50.998;4.754;2024-01-06T03:03:10;8.90;99.90
33715;DHT22;20043;50.998;4.754;2024-01-06T03:05:36;8.70;99.90
33715;DHT22;20043;50.998;4.754;2024-01-06T03:08:03;8.70;99.90
33715;DHT22;20043;50.998;4.754;2024-01-06T03:10:28;8.60;99.90
33715;DHT22;20043;50.998;4.754;2024-01-06T03:12:54;8.60;99.90
33715;DHT22;20043;50.998;4.754;2024-01-06T03:15:20;8.60;99.90
33715;DHT22;20043;50.998;4.754;2024-01-06T03:17:45;8.40;99.90
33715;DHT22;20043;50.998;4.754;2024-01-06T03:20:11;8.60;99.90
33715;DHT22;20043;50.998;4.754;2024-01-06T03:22:36;8.70;99.90
33715;DHT22;20043;50.998;4.754;2024-01-06T03:25:03;8.60;99.90
33715;DHT22;20043;50.998;4.754;2024-01-06T03:27:29;8.60;99.90
33715;DHT22;20043;50.998;4.754;2024-01-06T03:29:55;8.60;99.90
33715;DHT22;20043;50.998;4.754;2024-01-06T03:32:21;8.70;99.90
33715;DHT22;20043;50.998;4.754;2024-01-06T03:34:47;8.80;99.90
33715;DHT22;20043;50.998;4.754;2024-01-06T03:37:12;8.80;99.90
33715;DHT22;20043;50.998;4.754;2024-01-06T03:39:38;8.90;99.90
33715;DHT22;20043;50.998;4.754;2024-01-06T03:42:04;8.90;99.90
33715;DHT22;20043;50.998;4.754;2024-01-06T03:44:29;9.00;99.90
33715;DHT22;20043;50.998;4.754;2024-01-06T03:46:59;8.90;99.90
33715;DHT22;20043;50.998;4.754;2024-01-06T03:49:25;8.90;99.90
33715;DHT22;20043;50.998;4.754;2024-01-06T03:51:51;8.80;99.90
33715;DHT22;20043;50.998;4.754;2024-01-06T03:54:16;8.90;99.90
33715;DHT22;20043;50.998;4.754;2024-01-06T03:56:42;8.80;99.90
33715;DHT22;20043;50.998;4.754;2024-01-06T03:59:08;8.80;99.90
33715;DHT22;20043;50.998;4.754;2024-01-06T04:01:34;8.70;99.90
33715;DHT22;20043;50.998;4.754;2024-01-06T04:04:04;8.70;99.90
33715;DHT22;20043;50.998;4.754;2024-01-06T04:06:30;8.80;99.90
33715;DHT22;20043;50.998;4.754;2024-01-06T04:08:57;8.90;99.90
33715;DHT22;20043;50.998;4.754;2024-01-06T04:11:23;9.00;99.90
33715;DHT22;20043;50.998;4.754;2024-01-06T04:13:49;8.90;99.90
33715;DHT22;20043;50.998;4.754;2024-01-06T04:16:14;8.80;99.90
33715;DHT22;20043;50.998;4.754;2024-01-06T04:18:40;8.70;99.90
33715;DHT22;20043;50.998;4.754;2024-01-06T04:21:05;8.70;99.90
33715;DHT22;20043;50.998;4.754;2024-01-06T04:23:31;8.70;99.90
33715;DHT22;20043;50.998;4.754;2024-01-06T04:25:57;8.70;99.90
33715;DHT22;20043;50.998;4.754;2024-01-06T04:28:22;8.70;99.90
33715;DHT22;20043;50.998;4.754;2024-01-06T04:30:48;8.70;99.90
33715;DHT22;20043;50.998;4.754;2024-01-06T04:33:14;8.80;99.90
33715;DHT22;20043;50.998;4.754;2024-01-06T04:35:39;8.70;99.90
33715;DHT22;20043;50.998;4.754;2024-01-06T04:38:05;8.80;99.90
33715;DHT22;20043;50.998;4.754;2024-01-06T04:40:31;8.70;99.90
33715;DHT22;20043;50.998;4.754;2024-01-06T04:42:56;8.50;99.90
33715;DHT22;20043;50.998;4.754;2024-01-06T04:45:22;8.50;99.90
33715;DHT22;20043;50.998;4.754;2024-01-06T04:47:50;8.60;99.90
33715;DHT22;20043;50.998;4.754;2024-01-06T04:50:15;8.50;99.90
33715;DHT22;20043;50.998;4.754;2024-01-06T04:52:41;8.50;99.90
33715;DHT22;20043;50.998;4.754;2024-01-06T04:55:07;8.10;99.90
33715;DHT22;20043;50.998;4.754;2024-01-06T04:57:33;7.60;99.90
33715;DHT22;20043;50.998;4.754;2024-01-06T04:59:59;7.50;99.90
33715;DHT22;20043;50.998;4.754;2024-01-06T05:02:25;7.40;99.90
33715;DHT22;20043;50.998;4.754;2024-01-06T05:04:51;7.30;99.90
33715;DHT22;20043;50.998;4.754;2024-01-06T05:07:16;7.50;99.90
33715;DHT22;20043;50.998;4.754;2024-01-06T05:09:42;7.50;99.90
33715;DHT22;20043;50.998;4.754;2024-01-06T05:12:08;7.50;99.90
33715;DHT22;20043;50.998;4.754;2024-01-06T05:14:40;7.50;99.90
33715;DHT22;20043;50.998;4.754;2024-01-06T05:17:05;7.40;99.90
33715;DHT22;20043;50.998;4.754;2024-01-06T05:19:31;7.40;99.90
33715;DHT22;20043;50.998;4.754;2024-01-06T05:21:57;7.50;99.90
33715;DHT22;20043;50.998;4.754;2024-01-06T05:24:23;7.60;99.90
33715;DHT22;20043;50.998;4.754;2024-01-06T05:26:48;7.90;99.90
33715;DHT22;20043;50.998;4.754;2024-01-06T05:29:14;7.90;99.90
33715;DHT22;20043;50.998;4.754;2024-01-06T05:31:40;7.90;99.90
33715;DHT22;20043;50.998;4.754;2024-01-06T05:34:05;7.90;99.90
33715;DHT22;20043;50.998;4.754;2024-01-06T05:36:31;7.80;99.90
33715;DHT22;20043;50.998;4.754;2024-01-06T05:38:57;7.80;99.90
33715;DHT22;20043;50.998;4.754;2024-01-06T05:41:23;7.90;99.90
33715;DHT22;20043;50.998;4.754;2024-01-06T05:43:48;7.90;99.90
33715;DHT22;20043;50.998;4.754;2024-01-06T05:46:24;8.00;99.90
33715;DHT22;20043;50.998;4.754;2024-01-06T05:48:49;7.90;99.90
33715;DHT22;20043;50.998;4.754;2024-01-06T05:51:15;7.80;99.90
33715;DHT22;20043;50.998;4.754;2024-01-06T05:53:41;7.70;99.90
33715;DHT22;20043;50.998;4.754;2024-01-06T05:56:07;7.70;99.90
33715;DHT22;20043;50.998;4.754;2024-01-06T05:58:34;7.80;99.90
33715;DHT22;20043;50.998;4.754;2024-01-06T06:01:00;7.90;99.90
33715;DHT22;20043;50.998;4.754;2024-01-06T06:03:26;8.00;99.90
33715;DHT22;20043;50.998;4.754;2024-01-06T06:05:51;8.00;99.90
33715;DHT22;20043;50.998;4.754;2024-01-06T06:08:18;8.00;99.90
33715;DHT22;20043;50.998;4.754;2024-01-06T06:10:44;7.90;99.90
33715;DHT22;20043;50.998;4.754;2024-01-06T06:13:26;7.60;99.90
33715;DHT22;20043;50.998;4.754;2024-01-06T06:15:52;7.50;99.90
33715;DHT22;20043;50.998;4.754;2024-01-06T06:18:18;7.60;99.90
33715;DHT22;20043;50.998;4.754;2024-01-06T06:20:43;7.70;99.90
33715;DHT22;20043;50.998;4.754;2024-01-06T06:23:16;7.70;99.90
33715;DHT22;20043;50.998;4.754;2024-01-06T06:25:41;7.60;99.90
33715;DHT22;20043;50.998;4.754;2024-01-06T06:28:07;7.50;99.90
33715;DHT22;20043;50.998;4.754;2024-01-06T06:30:33;7.30;99.90
33715;DHT22;20043;50.998;4.754;2024-01-06T06:32:58;7.20;99.90
33715;DHT22;20043;50.998;4.754;2024-01-06T06:35:24;7.10;99.90
33715;DHT22;20043;50.998;4.754;2024-01-06T06:37:50;7.10;99.90
33715;DHT22;20043;50.998;4.754;2024-01-06T06:40:16;7.00;99.90
33715;DHT22;20043;50.998;4.754;2024-01-06T06:42:41;6.90;99.90
33715;DHT22;20043;50.998;4.754;2024-01-06T06:45:07;7.10;99.90
33715;DHT22;20043;50.998;4.754;2024-01-06T06:47:33;7.10;99.90
33715;DHT22;20043;50.998;4.754;2024-01-06T06:49:59;7.10;99.90
33715;DHT22;20043;50.998;4.754;2024-01-06T06:52:24;7.00;99.90
33715;DHT22;20043;50.998;4.754;2024-01-06T06:54:50;6.90;99.90
33715;DHT22;20043;50.998;4.754;2024-01-06T06:57:18;7.00;99.90
33715;DHT22;20043;50.998;4.754;2024-01-06T06:59:43;6.90;99.90
33715;DHT22;20043;50.998;4.754;2024-01-06T07:02:09;6.70;99.90
33715;DHT22;20043;50.998;4.754;2024-01-06T07:04:35;6.80;99.90
33715;DHT22;20043;50.998;4.754;2024-01-06T07:07:00;6.80;99.90
33715;DHT22;20043;50.998;4.754;2024-01-06T07:09:26;6.70;99.90
33715;DHT22;20043;50.998;4.754;2024-01-06T07:11:51;6.50;99.90
33715;DHT22;20043;50.998;4.754;2024-01-06T07:14:17;6.50;99.90
33715;DHT22;20043;50.998;4.754;2024-01-06T07:16:43;6.60;99.90
33715;DHT22;20043;50.998;4.754;2024-01-06T07:19:08;6.80;99.90
33715;DHT22;20043;50.998;4.754;2024-01-06T07:21:34;6.90;99.90
33715;DHT22;20043;50.998;4.754;2024-01-06T07:24:00;7.10;99.90
33715;DHT22;20043;50.998;4.754;2024-01-06T07:26:26;7.00;99.90
33715;DHT22;20043;50.998;4.754;2024-01-06T07:28:53;7.10;99.90
33715;DHT22;20043;50.998;4.754;2024-01-06T07:31:18;7.20;99.90
33715;DHT22;20043;50.998;4.754;2024-01-06T07:33:44;7.40;99.90
33715;DHT22;20043;50.998;4.754;2024-01-06T07:36:09;7.30;99.90
33715;DHT22;20043;50.998;4.754;2024-01-06T07:38:36;7.40;99.90
33715;DHT22;20043;50.998;4.754;2024-01-06T07:41:02;7.20;99.90
33715;DHT22;20043;50.998;4.754;2024-01-06T07:43:30;7.00;99.90
33715;DHT22;20043;50.998;4.754;2024-01-06T07:45:55;7.00;99.90
33715;DHT22;20043;50.998;4.754;2024-01-06T07:48:21;7.00;99.90
33715;DHT22;20043;50.998;4.754;2024-01-06T07:50:47;7.10;99.90
33715;DHT22;20043;50.998;4.754;2024-01-06T07:53:12;7.10;99.90
33715;DHT22;20043;50.998;4.754;2024-01-06T07:55:39;7.20;99.90
33715;DHT22;20043;50.998;4.754;2024-01-06T07:58:05;7.20;99.90
33715;DHT22;20043;50.998;4.754;2024-01-06T08:00:31;7.30;99.90
33715;DHT22;20043;50.998;4.754;2024-01-06T08:02:57;7.40;99.90
33715;DHT22;20043;50.998;4.754;2024-01-06T08:05:22;7.20;99.90
33715;DHT22;20043;50.998;4.754;2024-01-06T08:07:49;7.10;99.90
33715;DHT22;20043;50.998;4.754;2024-01-06T08:10:15;7.10;99.90
33715;DHT22;20043;50.998;4.754;2024-01-06T08:12:40;7.20;99.90
33715;DHT22;20043;50.998;4.754;2024-01-06T08:15:06;7.10;99.90
33715;DHT22;20043;50.998;4.754;2024-01-06T08:17:33;7.20;99.90
33715;DHT22;20043;50.998;4.754;2024-01-06T08:19:58;7.30;99.90
33715;DHT22;20043;50.998;4.754;2024-01-06T08:22:25;7.30;99.90
33715;DHT22;20043;50.998;4.754;2024-01-06T08:24:50;7.10;99.90
33715;DHT22;20043;50.998;4.754;2024-01-06T08:27:16;7.10;99.90
33715;DHT22;20043;50.998;4.754;2024-01-06T08:29:41;7.20;99.90
33715;DHT22;20043;50.998;4.754;2024-01-06T08:32:07;7.20;99.90
33715;DHT22;20043;50.998;4.754;2024-01-06T08:34:33;6.90;99.90
33715;DHT22;20043;50.998;4.754;2024-01-06T08:36:58;7.00;99.90
33715;DHT22;20043;50.998;4.754;2024-01-06T08:39:24;7.00;99.90
33715;DHT22;20043;50.998;4.754;2024-01-06T08:41:50;7.00;99.90
33715;DHT22;20043;50.998;4.754;2024-01-06T08:44:16;6.80;99.90
33715;DHT22;20043;50.998;4.754;2024-01-06T08:46:41;6.70;99.90
33715;DHT22;20043;50.998;4.754;2024-01-06T08:49:07;6.60;99.90
33715;DHT22;20043;50.998;4.754;2024-01-06T08:51:33;6.60;99.90
33715;DHT22;20043;50.998;4.754;2024-01-06T08:53:59;6.50;99.90
33715;DHT22;20043;50.998;4.754;2024-01-06T08:56:25;6.50;99.90
33715;DHT22;20043;50.998;4.754;2024-01-06T08:58:51;6.40;99.90
33715;DHT22;20043;50.998;4.754;2024-01-06T09:01:16;6.50;99.90
33715;DHT22;20043;50.998;4.754;2024-01-06T09:03:42;6.50;99.90
33715;DHT22;20043;50.998;4.754;2024-01-06T09:06:08;6.60;99.90
33715;DHT22;20043;50.998;4.754;2024-01-06T09:08:33;6.70;99.90
33715;DHT22;20043;50.998;4.754;2024-01-06T09:10:59;6.80;99.90
33715;DHT22;20043;50.998;4.754;2024-01-06T09:13:25;6.90;99.90
33715;DHT22;20043;50.998;4.754;2024-01-06T09:15:51;6.90;99.90
33715;DHT22;20043;50.998;4.754;2024-01-06T09:18:17;6.90;99.90
33715;DHT22;20043;50.998;4.754;2024-01-06T09:20:42;6.90;99.90
33715;DHT22;20043;50.998;4.754;2024-01-06T09:23:08;6.90;99.90
33715;DHT22;20043;50.998;4.754;2024-01-06T09:25:35;6.70;99.90
33715;DHT22;20043;50.998;4.754;2024-01-06T09:28:01;6.60;99.90
33715;DHT22;20043;50.998;4.754;2024-01-06T09:30:26;6.50;99.90
33715;DHT22;20043;50.998;4.754;2024-01-06T09:32:52;6.80;99.90
33715;DHT22;20043;50.998;4.754;2024-01-06T09:35:18;6.80;99.90
33715;DHT22;20043;50.998;4.754;2024-01-06T09:37:44;6.80;99.90
33715;DHT22;20043;50.998;4.754;2024-01-06T09:40:12;6.90;99.90
33715;DHT22;20043;50.998;4.754;2024-01-06T09:42:41;7.00;99.90
33715;DHT22;20043;50.998;4.754;2024-01-06T09:45:07;6.90;99.90
33715;DHT22;20043;50.998;4.754;2024-01-06T09:47:34;6.80;99.90
33715;DHT22;20043;50.998;4.754;2024-01-06T09:50:01;6.60;99.90
33715;DHT22;20043;50.998;4.754;2024-01-06T09:52:32;6.60;99.90
33715;DHT22;20043;50.998;4.754;2024-01-06T09:55:00;6.60;99.90
33715;DHT22;20043;50.998;4.754;2024-01-06T09:57:27;6.60;99.90
33715;DHT22;20043;50.998;4.754;2024-01-06T09:59:54;6.60;99.90
33715;DHT22;20043;50.998;4.754;2024-01-06T10:02:20;6.30;99.90
33715;DHT22;20043;50.998;4.754;2024-01-06T10:04:48;6.30;99.90
33715;DHT22;20043;50.998;4.754;2024-01-06T10:07:14;6.50;99.90
33715;DHT22;20043;50.998;4.754;2024-01-06T10:09:43;6.70;99.90
33715;DHT22;20043;50.998;4.754;2024-01-06T10:12:09;6.50;99.90
33715;DHT22;20043;50.998;4.754;2024-01-06T10:14:35;6.40;99.90
33715;DHT22;20043;50.998;4.754;2024-01-06T10:17:01;6.60;99.90
33715;DHT22;20043;50.998;4.754;2024-01-06T10:19:27;6.50;99.90
33715;DHT22;20043;50.998;4.754;2024-01-06T10:21:53;6.50;99.90
33715;DHT22;20043;50.998;4.754;2024-01-06T10:24:19;6.40;99.90
33715;DHT22;20043;50.998;4.754;2024-01-06T10:26:45;6.50;99.90
33715;DHT22;20043;50.998;4.754;2024-01-06T10:29:13;6.30;99.90
33715;DHT22;20043;50.998;4.754;2024-01-06T10:31:39;6.30;99.90
33715;DHT22;20043;50.998;4.754;2024-01-06T10:34:05;6.30;99.90
33715;DHT22;20043;50.998;4.754;2024-01-06T10:36:31;6.30;99.90
33715;DHT22;20043;50.998;4.754;2024-01-06T10:38:57;6.30;99.90
33715;DHT22;20043;50.998;4.754;2024-01-06T10:41:24;6.30;99.90
33715;DHT22;20043;50.998;4.754;2024-01-06T10:43:51;6.30;99.90
33715;DHT22;20043;50.998;4.754;2024-01-06T10:46:19;6.30;99.90
33715;DHT22;20043;50.998;4.754;2024-01-06T10:48:46;6.30;99.90
33715;DHT22;20043;50.998;4.754;2024-01-06T10:51:13;6.30;99.90
33715;DHT22;20043;50.998;4.754;2024-01-06T10:53:42;6.30;99.90
33715;DHT22;20043;50.998;4.754;2024-01-06T10:56:09;6.40;99.90
33715;DHT22;20043;50.998;4.754;2024-01-06T10:58:38;6.30;99.90
33715;DHT22;20043;50.998;4.754;2024-01-06T11:01:12;6.30;99.90
33715;DHT22;20043;50.998;4.754;2024-01-06T11:03:38;6.40;99.90
33715;DHT22;20043;50.998;4.754;2024-01-06T11:06:08;6.30;99.90
33715;DHT22;20043;50.998;4.754;2024-01-06T11:09:15;6.30;99.90
33715;DHT22;20043;50.998;4.754;2024-01-06T11:11:43;6.30;99.90
33715;DHT22;20043;50.998;4.754;2024-01-06T11:14:23;6.20;99.90
33715;DHT22;20043;50.998;4.754;2024-01-06T11:16:50;6.30;99.90
33715;DHT22;20043;50.998;4.754;2024-01-06T11:24:47;6.50;99.90
33715;DHT22;20043;50.998;4.754;2024-01-06T11:27:21;6.70;99.90
33715;DHT22;20043;50.998;4.754;2024-01-06T11:29:50;6.50;99.90
33715;DHT22;20043;50.998;4.754;2024-01-06T11:34:53;6.30;99.90
33715;DHT22;20043;50.998;4.754;2024-01-06T11:43:01;6.50;99.90
33715;DHT22;20043;50.998;4.754;2024-01-06T11:45:31;6.40;99.90
33715;DHT22;20043;50.998;4.754;2024-01-06T11:48:02;6.40;99.90
33715;DHT22;20043;50.998;4.754;2024-01-06T11:50:30;6.30;99.90
33715;DHT22;20043;50.998;4.754;2024-01-06T11:52:57;6.50;99.90
33715;DHT22;20043;50.998;4.754;2024-01-06T11:55:25;6.70;99.90
33715;DHT22;20043;50.998;4.754;2024-01-06T11:57:54;6.70;99.90
33715;DHT22;20043;50.998;4.754;2024-01-06T12:00:19;6.60;99.90
33715;DHT22;20043;50.998;4.754;2024-01-06T12:02:45;6.70;99.90
33715;DHT22;20043;50.998;4.754;2024-01-06T12:05:17;6.70;99.90
33715;DHT22;20043;50.998;4.754;2024-01-06T12:07:52;6.70;99.90
33715;DHT22;20043;50.998;4.754;2024-01-06T12:10:20;6.60;99.90
33715;DHT22;20043;50.998;4.754;2024-01-06T12:12:58;6.40;99.90
33715;DHT22;20043;50.998;4.754;2024-01-06T12:15:24;6.30;99.90
33715;DHT22;20043;50.998;4.754;2024-01-06T12:17:50;6.20;99.90
33715;DHT22;20043;50.998;4.754;2024-01-06T12:20:16;6.30;99.90
33715;DHT22;20043;50.998;4.754;2024-01-06T12:22:42;6.40;99.90
33715;DHT22;20043;50.998;4.754;2024-01-06T12:25:09;6.40;99.90
33715;DHT22;20043;50.998;4.754;2024-01-06T12:27:34;6.40;99.90
33715;DHT22;20043;50.998;4.754;2024-01-06T12:30:01;6.30;99.90
33715;DHT22;20043;50.998;4.754;2024-01-06T12:32:28;6.20;99.90
33715;DHT22;20043;50.998;4.754;2024-01-06T12:34:54;6.10;99.90
33715;DHT22;20043;50.998;4.754;2024-01-06T12:37:22;6.30;99.90
33715;DHT22;20043;50.998;4.754;2024-01-06T12:39:57;6.20;99.90
33715;DHT22;20043;50.998;4.754;2024-01-06T12:42:23;6.10;99.90
33715;DHT22;20043;50.998;4.754;2024-01-06T12:44:49;6.10;99.90
33715;DHT22;20043;50.998;4.754;2024-01-06T12:47:15;6.20;99.90
33715;DHT22;20043;50.998;4.754;2024-01-06T12:49:42;6.30;99.90
33715;DHT22;20043;50.998;4.754;2024-01-06T12:52:07;6.30;99.90
33715;DHT22;20043;50.998;4.754;2024-01-06T12:54:33;6.30;99.90
33715;DHT22;20043;50.998;4.754;2024-01-06T12:56:58;6.10;99.90
33715;DHT22;20043;50.998;4.754;2024-01-06T12:59:25;6.20;99.90
33715;DHT22;20043;50.998;4.754;2024-01-06T13:01:51;6.30;99.90
33715;DHT22;20043;50.998;4.754;2024-01-06T13:04:16;6.20;99.90
33715;DHT22;20043;50.998;4.754;2024-01-06T13:06:42;6.10;99.90
33715;DHT22;20043;50.998;4.754;2024-01-06T13:09:08;6.10;99.90
33715;DHT22;20043;50.998;4.754;2024-01-06T13:11:37;6.20;99.90
33715;DHT22;20043;50.998;4.754;2024-01-06T13:14:03;6.30;99.90
33715;DHT22;20043;50.998;4.754;2024-01-06T13:16:28;6.10;99.90
33715;DHT22;20043;50.998;4.754;2024-01-06T13:18:54;6.00;99.90
33715;DHT22;20043;50.998;4.754;2024-01-06T13:21:20;6.00;99.90
33715;DHT22;20043;50.998;4.754;2024-01-06T13:23:45;6.00;99.90
33715;DHT22;20043;50.998;4.754;2024-01-06T13:26:11;6.00;99.90
33715;DHT22;20043;50.998;4.754;2024-01-06T13:28:37;5.90;99.90
33715;DHT22;20043;50.998;4.754;2024-01-06T13:31:03;5.90;99.90
33715;DHT22;20043;50.998;4.754;2024-01-06T13:33:28;5.90;99.90
33715;DHT22;20043;50.998;4.754;2024-01-06T13:35:54;6.00;99.90
33715;DHT22;20043;50.998;4.754;2024-01-06T13:38:27;5.80;99.90
33715;DHT22;20043;50.998;4.754;2024-01-06T13:40:53;5.70;99.90
33715;DHT22;20043;50.998;4.754;2024-01-06T13:43:18;5.70;99.90
33715;DHT22;20043;50.998;4.754;2024-01-06T13:45:44;5.60;99.90
33715;DHT22;20043;50.998;4.754;2024-01-06T13:48:10;5.70;99.90
33715;DHT22;20043;50.998;4.754;2024-01-06T13:50:35;5.70;99.90
33715;DHT22;20043;50.998;4.754;2024-01-06T13:53:01;5.70;99.90
33715;DHT22;20043;50.998;4.754;2024-01-06T13:55:28;5.60;99.90
33715;DHT22;20043;50.998;4.754;2024-01-06T13:57:54;5.60;99.90
33715;DHT22;20043;50.998;4.754;2024-01-06T14:00:20;5.50;99.90
33715;DHT22;20043;50.998;4.754;2024-01-06T14:02:46;5.50;99.90
33715;DHT22;20043;50.998;4.754;2024-01-06T14:05:14;5.50;99.90
33715;DHT22;20043;50.998;4.754;2024-01-06T14:07:40;5.60;99.90
33715;DHT22;20043;50.998;4.754;2024-01-06T14:10:11;5.70;99.90
33715;DHT22;20043;50.998;4.754;2024-01-06T14:12:37;5.60;99.90
33715;DHT22;20043;50.998;4.754;2024-01-06T14:15:03;5.60;99.90
33715;DHT22;20043;50.998;4.754;2024-01-06T14:17:29;5.60;99.90
33715;DHT22;20043;50.998;4.754;2024-01-06T14:19:55;5.70;99.90
33715;DHT22;20043;50.998;4.754;2024-01-06T14:22:21;5.90;99.90
33715;DHT22;20043;50.998;4.754;2024-01-06T14:24:46;5.90;99.90
33715;DHT22;20043;50.998;4.754;2024-01-06T14:27:12;5.70;99.90
33715;DHT22;20043;50.998;4.754;2024-01-06T14:29:38;5.70;99.90
33715;DHT22;20043;50.998;4.754;2024-01-06T14:32:11;5.70;99.90
33715;DHT22;20043;50.998;4.754;2024-01-06T14:34:36;5.70;99.90
33715;DHT22;20043;50.998;4.754;2024-01-06T14:37:02;5.90;99.90
33715;DHT22;20043;50.998;4.754;2024-01-06T14:39:27;5.90;99.90
33715;DHT22;20043;50.998;4.754;2024-01-06T14:41:53;5.90;99.90
33715;DHT22;20043;50.998;4.754;2024-01-06T14:44:19;5.90;99.90
33715;DHT22;20043;50.998;4.754;2024-01-06T14:46:48;5.90;99.90
33715;DHT22;20043;50.998;4.754;2024-01-06T14:49:13;5.70;99.90
33715;DHT22;20043;50.998;4.754;2024-01-06T14:51:39;5.70;99.90
33715;DHT22;20043;50.998;4.754;2024-01-06T14:54:05;5.80;99.90
33715;DHT22;20043;50.998;4.754;2024-01-06T14:56:32;5.90;99.90
33715;DHT22;20043;50.998;4.754;2024-01-06T14:58:58;6.00;99.90
33715;DHT22;20043;50.998;4.754;2024-01-06T15:01:23;6.00;99.90
33715;DHT22;20043;50.998;4.754;2024-01-06T15:03:49;5.90;99.90
33715;DHT22;20043;50.998;4.754;2024-01-06T15:06:15;6.10;99.90
33715;DHT22;20043;50.998;4.754;2024-01-06T15:08:42;6.00;99.90
33715;DHT22;20043;50.998;4.754;2024-01-06T15:11:08;6.00;99.90
33715;DHT22;20043;50.998;4.754;2024-01-06T15:13:34;6.00;99.90
33715;DHT22;20043;50.998;4.754;2024-01-06T15:16:01;5.80;99.90
33715;DHT22;20043;50.998;4.754;2024-01-06T15:18:27;5.80;99.90
33715;DHT22;20043;50.998;4.754;2024-01-06T15:20:53;5.80;99.90
33715;DHT22;20043;50.998;4.754;2024-01-06T15:23:19;5.80;99.90
33715;DHT22;20043;50.998;4.754;2024-01-06T15:25:45;5.80;99.90
33715;DHT22;20043;50.998;4.754;2024-01-06T15:28:12;5.80;99.90
33715;DHT22;20043;50.998;4.754;2024-01-06T15:30:38;5.80;99.90
33715;DHT22;20043;50.998;4.754;2024-01-06T15:33:04;5.70;99.90
33715;DHT22;20043;50.998;4.754;2024-01-06T15:35:30;5.60;99.90
33715;DHT22;20043;50.998;4.754;2024-01-06T15:37:55;5.70;99.90
33715;DHT22;20043;50.998;4.754;2024-01-06T15:40:21;5.70;99.90
33715;DHT22;20043;50.998;4.754;2024-01-06T15:42:47;5.70;99.90
33715;DHT22;20043;50.998;4.754;2024-01-06T15:45:13;5.80;99.90
33715;DHT22;20043;50.998;4.754;2024-01-06T15:47:39;5.70;99.90
33715;DHT22;20043;50.998;4.754;2024-01-06T15:50:05;5.70;99.90
33715;DHT22;20043;50.998;4.754;2024-01-06T15:52:35;5.70;99.90